sensor_id;sensor_type;location;lat;lon;timestamp;P1;durP1;ratioP1;P2;durP2;ratioP2
68250;SDS011;55066;51.560;4.642;2023-04-21T00:00:56;22.10;;;11.35;;
68250;SDS011;55066;51.560;4.642;2023-04-21T00:03:23;25.43;;;11.97;;
68250;SDS011;55066;51.560;4.642;2023-04-21T00:05:52;22.52;;;11.70;;
68250;SDS011;55066;51.560;4.642;2023-04-21T00:08:22;24.85;;;12.27;;
68250;SDS011;55066;51.560;4.642;2023-04-21T00:10:51;24.20;;;12.00;;
68250;SDS011;55066;51.560;4.642;2023-04-21T00:13:17;25.20;;;12.18;;
68250;SDS011;55066;51.560;4.642;2023-04-21T00:15:42;26.27;;;12.87;;
68250;SDS011;55066;51.560;4.642;2023-04-21T00:18:08;26.95;;;12.55;;
68250;SDS011;55066;51.560;4.642;2023-04-21T00:20:34;26.37;;;12.27;;
68250;SDS011;55066;51.560;4.642;2023-04-21T00:23:00;25.88;;;11.63;;
68250;SDS011;55066;51.560;4.642;2023-04-21T00:25:26;24.75;;;11.25;;
68250;SDS011;55066;51.560;4.642;2023-04-21T00:27:53;27.93;;;12.63;;
68250;SDS011;55066;51.560;4.642;2023-04-21T00:30:19;24.42;;;11.98;;
68250;SDS011;55066;51.560;4.642;2023-04-21T00:32:45;26.37;;;11.83;;
68250;SDS011;55066;51.560;4.642;2023-04-21T00:35:12;29.52;;;12.38;;
68250;SDS011;55066;51.560;4.642;2023-04-21T00:37:38;24.87;;;11.57;;
68250;SDS011;55066;51.560;4.642;2023-04-21T00:40:04;27.10;;;12.13;;
68250;SDS011;55066;51.560;4.642;2023-04-21T00:42:30;31.75;;;14.50;;
68250;SDS011;55066;51.560;4.642;2023-04-21T00:44:56;26.70;;;12.20;;
68250;SDS011;55066;51.560;4.642;2023-04-21T00:47:22;28.67;;;12.90;;
68250;SDS011;55066;51.560;4.642;2023-04-21T00:49:48;28.75;;;12.98;;
68250;SDS011;55066;51.560;4.642;2023-04-21T00:52:16;25.15;;;12.00;;
68250;SDS011;55066;51.560;4.642;2023-04-21T00:54:43;25.13;;;12.50;;
68250;SDS011;55066;51.560;4.642;2023-04-21T00:57:10;31.15;;;14.25;;
68250;SDS011;55066;51.560;4.642;2023-04-21T00:59:36;30.02;;;14.40;;
68250;SDS011;55066;51.560;4.642;2023-04-21T01:02:02;32.27;;;14.37;;
68250;SDS011;55066;51.560;4.642;2023-04-21T01:04:29;32.35;;;14.10;;
68250;SDS011;55066;51.560;4.642;2023-04-21T01:07:03;32.13;;;14.88;;
68250;SDS011;55066;51.560;4.642;2023-04-21T01:09:31;37.63;;;15.85;;
68250;SDS011;55066;51.560;4.642;2023-04-21T01:12:04;35.08;;;15.45;;
68250;SDS011;55066;51.560;4.642;2023-04-21T01:14:33;31.87;;;14.87;;
68250;SDS011;55066;51.560;4.642;2023-04-21T01:16:59;36.53;;;15.00;;
68250;SDS011;55066;51.560;4.642;2023-04-21T01:19:29;30.70;;;13.25;;
68250;SDS011;55066;51.560;4.642;2023-04-21T01:21:58;33.67;;;14.73;;
68250;SDS011;55066;51.560;4.642;2023-04-21T01:24:46;33.38;;;14.55;;
68250;SDS011;55066;51.560;4.642;2023-04-21T01:27:16;30.87;;;13.10;;
68250;SDS011;55066;51.560;4.642;2023-04-21T01:29:47;31.42;;;13.75;;
68250;SDS011;55066;51.560;4.642;2023-04-21T01:32:16;30.20;;;13.52;;
68250;SDS011;55066;51.560;4.642;2023-04-21T01:34:44;33.05;;;15.00;;
68250;SDS011;55066;51.560;4.642;2023-04-21T01:37:11;34.85;;;14.63;;
68250;SDS011;55066;51.560;4.642;2023-04-21T01:39:40;35.90;;;15.43;;
68250;SDS011;55066;51.560;4.642;2023-04-21T01:42:11;33.20;;;14.13;;
68250;SDS011;55066;51.560;4.642;2023-04-21T01:44:37;32.05;;;14.20;;
68250;SDS011;55066;51.560;4.642;2023-04-21T01:47:05;28.83;;;12.52;;
68250;SDS011;55066;51.560;4.642;2023-04-21T01:49:31;32.88;;;15.10;;
68250;SDS011;55066;51.560;4.642;2023-04-21T01:52:00;33.55;;;15.65;;
68250;SDS011;55066;51.560;4.642;2023-04-21T01:54:26;34.28;;;14.38;;
68250;SDS011;55066;51.560;4.642;2023-04-21T01:56:53;34.08;;;14.73;;
68250;SDS011;55066;51.560;4.642;2023-04-21T01:59:20;32.08;;;14.35;;
68250;SDS011;55066;51.560;4.642;2023-04-21T02:01:46;33.00;;;14.60;;
68250;SDS011;55066;51.560;4.642;2023-04-21T02:04:13;37.42;;;15.18;;
68250;SDS011;55066;51.560;4.642;2023-04-21T02:06:39;36.05;;;15.65;;
68250;SDS011;55066;51.560;4.642;2023-04-21T02:09:05;34.80;;;15.17;;
68250;SDS011;55066;51.560;4.642;2023-04-21T02:11:31;31.27;;;13.32;;
68250;SDS011;55066;51.560;4.642;2023-04-21T02:13:56;32.47;;;13.37;;
68250;SDS011;55066;51.560;4.642;2023-04-21T02:16:22;32.40;;;14.38;;
68250;SDS011;55066;51.560;4.642;2023-04-21T02:18:52;29.73;;;12.88;;
68250;SDS011;55066;51.560;4.642;2023-04-21T02:21:18;32.73;;;14.03;;
68250;SDS011;55066;51.560;4.642;2023-04-21T02:23:47;25.25;;;11.38;;
68250;SDS011;55066;51.560;4.642;2023-04-21T02:26:13;25.13;;;11.95;;
68250;SDS011;55066;51.560;4.642;2023-04-21T02:28:40;25.38;;;11.93;;
68250;SDS011;55066;51.560;4.642;2023-04-21T02:31:06;26.25;;;11.57;;
68250;SDS011;55066;51.560;4.642;2023-04-21T02:33:34;24.17;;;11.13;;
68250;SDS011;55066;51.560;4.642;2023-04-21T02:36:00;24.58;;;11.10;;
68250;SDS011;55066;51.560;4.642;2023-04-21T02:38:28;27.23;;;12.15;;
68250;SDS011;55066;51.560;4.642;2023-04-21T02:40:55;29.00;;;12.50;;
68250;SDS011;55066;51.560;4.642;2023-04-21T02:43:22;26.95;;;11.63;;
68250;SDS011;55066;51.560;4.642;2023-04-21T02:45:49;25.60;;;11.43;;
68250;SDS011;55066;51.560;4.642;2023-04-21T02:48:16;26.83;;;11.25;;
68250;SDS011;55066;51.560;4.642;2023-04-21T02:50:48;28.83;;;11.88;;
68250;SDS011;55066;51.560;4.642;2023-04-21T02:53:14;26.40;;;11.15;;
68250;SDS011;55066;51.560;4.642;2023-04-21T02:55:41;26.65;;;12.18;;
68250;SDS011;55066;51.560;4.642;2023-04-21T02:58:07;23.97;;;11.00;;
68250;SDS011;55066;51.560;4.642;2023-04-21T03:00:33;28.40;;;12.00;;
68250;SDS011;55066;51.560;4.642;2023-04-21T03:02:59;28.92;;;12.50;;
68250;SDS011;55066;51.560;4.642;2023-04-21T03:05:25;26.95;;;11.05;;
68250;SDS011;55066;51.560;4.642;2023-04-21T03:07:51;29.63;;;12.90;;
68250;SDS011;55066;51.560;4.642;2023-04-21T03:10:16;27.00;;;12.23;;
68250;SDS011;55066;51.560;4.642;2023-04-21T03:12:43;31.70;;;13.02;;
68250;SDS011;55066;51.560;4.642;2023-04-21T03:15:10;28.50;;;11.88;;
68250;SDS011;55066;51.560;4.642;2023-04-21T03:17:38;27.50;;;12.47;;
68250;SDS011;55066;51.560;4.642;2023-04-21T03:20:06;25.08;;;11.23;;
68250;SDS011;55066;51.560;4.642;2023-04-21T03:22:34;27.23;;;11.63;;
68250;SDS011;55066;51.560;4.642;2023-04-21T03:25:00;28.30;;;12.63;;
68250;SDS011;55066;51.560;4.642;2023-04-21T03:27:26;26.83;;;11.70;;
68250;SDS011;55066;51.560;4.642;2023-04-21T03:29:52;30.23;;;11.80;;
68250;SDS011;55066;51.560;4.642;2023-04-21T03:32:19;30.63;;;11.82;;
68250;SDS011;55066;51.560;4.642;2023-04-21T03:34:45;25.20;;;11.38;;
68250;SDS011;55066;51.560;4.642;2023-04-21T03:37:11;26.63;;;10.47;;
68250;SDS011;55066;51.560;4.642;2023-04-21T03:39:36;26.17;;;11.20;;
68250;SDS011;55066;51.560;4.642;2023-04-21T03:42:03;28.30;;;12.40;;
68250;SDS011;55066;51.560;4.642;2023-04-21T03:44:30;27.20;;;11.80;;
68250;SDS011;55066;51.560;4.642;2023-04-21T03:46:56;28.40;;;12.60;;
68250;SDS011;55066;51.560;4.642;2023-04-21T03:49:22;27.20;;;12.20;;
68250;SDS011;55066;51.560;4.642;2023-04-21T03:51:48;26.20;;;10.45;;
68250;SDS011;55066;51.560;4.642;2023-04-21T03:54:14;23.17;;;10.13;;
68250;SDS011;55066;51.560;4.642;2023-04-21T03:56:41;28.65;;;11.93;;
68250;SDS011;55066;51.560;4.642;2023-04-21T03:59:07;27.20;;;11.73;;
68250;SDS011;55066;51.560;4.642;2023-04-21T04:01:33;27.03;;;11.57;;
68250;SDS011;55066;51.560;4.642;2023-04-21T04:03:59;28.15;;;11.27;;
68250;SDS011;55066;51.560;4.642;2023-04-21T04:06:26;28.00;;;11.45;;
68250;SDS011;55066;51.560;4.642;2023-04-21T04:08:52;27.48;;;11.63;;
68250;SDS011;55066;51.560;4.642;2023-04-21T04:11:18;31.53;;;11.70;;
68250;SDS011;55066;51.560;4.642;2023-04-21T04:13:46;27.42;;;10.95;;
68250;SDS011;55066;51.560;4.642;2023-04-21T04:16:11;26.38;;;12.00;;
68250;SDS011;55066;51.560;4.642;2023-04-21T04:18:37;31.13;;;12.43;;
68250;SDS011;55066;51.560;4.642;2023-04-21T04:21:05;28.63;;;11.63;;
68250;SDS011;55066;51.560;4.642;2023-04-21T04:23:34;33.17;;;13.73;;
68250;SDS011;55066;51.560;4.642;2023-04-21T04:26:01;30.85;;;12.75;;
68250;SDS011;55066;51.560;4.642;2023-04-21T04:28:30;34.25;;;13.80;;
68250;SDS011;55066;51.560;4.642;2023-04-21T04:30:55;35.47;;;13.37;;
68250;SDS011;55066;51.560;4.642;2023-04-21T04:33:21;32.67;;;13.38;;
68250;SDS011;55066;51.560;4.642;2023-04-21T04:35:47;36.60;;;13.23;;
68250;SDS011;55066;51.560;4.642;2023-04-21T04:38:13;33.05;;;12.98;;
68250;SDS011;55066;51.560;4.642;2023-04-21T04:40:39;34.58;;;14.02;;
68250;SDS011;55066;51.560;4.642;2023-04-21T04:43:06;34.90;;;12.85;;
68250;SDS011;55066;51.560;4.642;2023-04-21T04:45:32;35.20;;;15.05;;
68250;SDS011;55066;51.560;4.642;2023-04-21T04:47:58;39.75;;;14.88;;
68250;SDS011;55066;51.560;4.642;2023-04-21T04:50:24;40.50;;;15.82;;
68250;SDS011;55066;51.560;4.642;2023-04-21T04:52:50;37.63;;;14.85;;
68250;SDS011;55066;51.560;4.642;2023-04-21T04:55:16;39.45;;;14.82;;
68250;SDS011;55066;51.560;4.642;2023-04-21T04:57:43;37.67;;;15.27;;
68250;SDS011;55066;51.560;4.642;2023-04-21T05:00:08;39.07;;;15.20;;
68250;SDS011;55066;51.560;4.642;2023-04-21T05:02:46;39.47;;;14.90;;
68250;SDS011;55066;51.560;4.642;2023-04-21T05:05:11;41.37;;;15.83;;
68250;SDS011;55066;51.560;4.642;2023-04-21T05:07:36;41.40;;;15.50;;
68250;SDS011;55066;51.560;4.642;2023-04-21T05:10:02;40.47;;;16.37;;
68250;SDS011;55066;51.560;4.642;2023-04-21T05:12:29;42.15;;;16.52;;
68250;SDS011;55066;51.560;4.642;2023-04-21T05:14:57;43.78;;;17.75;;
68250;SDS011;55066;51.560;4.642;2023-04-21T05:17:23;48.40;;;19.00;;
68250;SDS011;55066;51.560;4.642;2023-04-21T05:19:49;49.83;;;18.13;;
68250;SDS011;55066;51.560;4.642;2023-04-21T05:22:16;48.13;;;17.83;;
68250;SDS011;55066;51.560;4.642;2023-04-21T05:24:45;53.53;;;19.92;;
68250;SDS011;55066;51.560;4.642;2023-04-21T05:27:10;56.45;;;20.20;;
68250;SDS011;55066;51.560;4.642;2023-04-21T05:29:37;58.13;;;20.25;;
68250;SDS011;55066;51.560;4.642;2023-04-21T05:32:06;53.13;;;20.07;;
68250;SDS011;55066;51.560;4.642;2023-04-21T05:34:32;61.10;;;21.88;;
68250;SDS011;55066;51.560;4.642;2023-04-21T05:36:57;52.97;;;18.63;;
68250;SDS011;55066;51.560;4.642;2023-04-21T05:39:23;58.92;;;20.83;;
68250;SDS011;55066;51.560;4.642;2023-04-21T05:41:48;51.13;;;18.07;;
68250;SDS011;55066;51.560;4.642;2023-04-21T05:44:15;57.80;;;20.88;;
68250;SDS011;55066;51.560;4.642;2023-04-21T05:46:42;61.45;;;22.73;;
68250;SDS011;55066;51.560;4.642;2023-04-21T05:49:09;60.10;;;20.73;;
68250;SDS011;55066;51.560;4.642;2023-04-21T05:51:35;63.13;;;21.83;;
68250;SDS011;55066;51.560;4.642;2023-04-21T05:54:02;62.28;;;21.85;;
68250;SDS011;55066;51.560;4.642;2023-04-21T05:56:28;64.28;;;22.95;;
68250;SDS011;55066;51.560;4.642;2023-04-21T05:58:54;68.97;;;24.17;;
68250;SDS011;55066;51.560;4.642;2023-04-21T06:01:23;64.10;;;21.52;;
68250;SDS011;55066;51.560;4.642;2023-04-21T06:03:49;60.10;;;21.37;;
68250;SDS011;55066;51.560;4.642;2023-04-21T06:06:14;64.57;;;22.02;;
68250;SDS011;55066;51.560;4.642;2023-04-21T06:08:41;58.43;;;20.60;;
68250;SDS011;55066;51.560;4.642;2023-04-21T06:11:08;63.38;;;22.90;;
68250;SDS011;55066;51.560;4.642;2023-04-21T06:13:36;68.78;;;22.85;;
68250;SDS011;55066;51.560;4.642;2023-04-21T06:16:04;62.63;;;21.42;;
68250;SDS011;55066;51.560;4.642;2023-04-21T06:18:31;65.28;;;21.85;;
68250;SDS011;55066;51.560;4.642;2023-04-21T06:20:58;69.67;;;23.97;;
68250;SDS011;55066;51.560;4.642;2023-04-21T06:23:23;64.47;;;22.25;;
68250;SDS011;55066;51.560;4.642;2023-04-21T06:25:57;66.07;;;21.67;;
68250;SDS011;55066;51.560;4.642;2023-04-21T06:28:24;69.10;;;22.97;;
68250;SDS011;55066;51.560;4.642;2023-04-21T06:30:52;66.00;;;24.08;;
68250;SDS011;55066;51.560;4.642;2023-04-21T06:33:18;69.13;;;24.10;;
68250;SDS011;55066;51.560;4.642;2023-04-21T06:35:44;67.25;;;23.15;;
68250;SDS011;55066;51.560;4.642;2023-04-21T06:38:10;62.20;;;21.97;;
68250;SDS011;55066;51.560;4.642;2023-04-21T06:40:37;57.73;;;21.30;;
68250;SDS011;55066;51.560;4.642;2023-04-21T06:43:03;63.90;;;22.00;;
68250;SDS011;55066;51.560;4.642;2023-04-21T06:45:28;63.67;;;22.90;;
68250;SDS011;55066;51.560;4.642;2023-04-21T06:47:54;57.83;;;22.70;;
68250;SDS011;55066;51.560;4.642;2023-04-21T06:50:20;61.17;;;22.10;;
68250;SDS011;55066;51.560;4.642;2023-04-21T06:52:45;58.87;;;21.37;;
68250;SDS011;55066;51.560;4.642;2023-04-21T06:55:11;60.47;;;21.97;;
68250;SDS011;55066;51.560;4.642;2023-04-21T06:57:39;54.08;;;20.85;;
68250;SDS011;55066;51.560;4.642;2023-04-21T07:00:06;42.80;;;16.55;;
68250;SDS011;55066;51.560;4.642;2023-04-21T07:02:32;46.67;;;17.13;;
68250;SDS011;55066;51.560;4.642;2023-04-21T07:04:57;44.00;;;16.53;;
68250;SDS011;55066;51.560;4.642;2023-04-21T07:07:23;50.30;;;19.42;;
68250;SDS011;55066;51.560;4.642;2023-04-21T07:09:49;51.40;;;19.03;;
68250;SDS011;55066;51.560;4.642;2023-04-21T07:12:16;54.13;;;20.98;;
68250;SDS011;55066;51.560;4.642;2023-04-21T07:14:42;54.20;;;20.60;;
68250;SDS011;55066;51.560;4.642;2023-04-21T07:17:07;51.63;;;19.70;;
68250;SDS011;55066;51.560;4.642;2023-04-21T07:19:35;52.47;;;19.70;;
68250;SDS011;55066;51.560;4.642;2023-04-21T07:22:01;49.50;;;18.67;;
68250;SDS011;55066;51.560;4.642;2023-04-21T07:24:31;46.00;;;18.92;;
68250;SDS011;55066;51.560;4.642;2023-04-21T07:26:59;51.72;;;20.30;;
68250;SDS011;55066;51.560;4.642;2023-04-21T07:29:26;53.70;;;19.95;;
68250;SDS011;55066;51.560;4.642;2023-04-21T07:31:55;51.50;;;19.20;;
68250;SDS011;55066;51.560;4.642;2023-04-21T07:34:22;50.03;;;18.92;;
68250;SDS011;55066;51.560;4.642;2023-04-21T07:36:49;45.75;;;18.55;;
68250;SDS011;55066;51.560;4.642;2023-04-21T07:39:15;46.45;;;19.40;;
68250;SDS011;55066;51.560;4.642;2023-04-21T07:41:40;42.90;;;16.83;;
68250;SDS011;55066;51.560;4.642;2023-04-21T07:44:08;50.10;;;19.20;;
68250;SDS011;55066;51.560;4.642;2023-04-21T07:46:34;44.43;;;17.80;;
68250;SDS011;55066;51.560;4.642;2023-04-21T07:48:59;48.10;;;19.37;;
68250;SDS011;55066;51.560;4.642;2023-04-21T07:51:25;40.15;;;16.42;;
68250;SDS011;55066;51.560;4.642;2023-04-21T07:53:54;42.30;;;17.38;;
68250;SDS011;55066;51.560;4.642;2023-04-21T07:56:20;39.15;;;17.48;;
68250;SDS011;55066;51.560;4.642;2023-04-21T07:58:46;42.45;;;17.85;;
68250;SDS011;55066;51.560;4.642;2023-04-21T08:01:11;42.00;;;17.97;;
68250;SDS011;55066;51.560;4.642;2023-04-21T08:03:37;43.70;;;16.38;;
68250;SDS011;55066;51.560;4.642;2023-04-21T08:06:03;43.13;;;17.07;;
68250;SDS011;55066;51.560;4.642;2023-04-21T08:08:29;40.67;;;17.00;;
68250;SDS011;55066;51.560;4.642;2023-04-21T08:10:55;43.28;;;17.45;;
68250;SDS011;55066;51.560;4.642;2023-04-21T08:13:21;44.88;;;17.50;;
68250;SDS011;55066;51.560;4.642;2023-04-21T08:15:52;43.70;;;17.95;;
68250;SDS011;55066;51.560;4.642;2023-04-21T08:18:18;42.90;;;17.98;;
68250;SDS011;55066;51.560;4.642;2023-04-21T08:20:45;43.53;;;16.70;;
68250;SDS011;55066;51.560;4.642;2023-04-21T08:23:12;34.67;;;14.57;;
68250;SDS011;55066;51.560;4.642;2023-04-21T08:25:38;36.33;;;15.70;;
68250;SDS011;55066;51.560;4.642;2023-04-21T08:28:05;39.50;;;16.15;;
68250;SDS011;55066;51.560;4.642;2023-04-21T08:30:31;38.58;;;16.42;;
68250;SDS011;55066;51.560;4.642;2023-04-21T08:32:57;38.13;;;15.00;;
68250;SDS011;55066;51.560;4.642;2023-04-21T08:35:25;33.88;;;14.63;;
68250;SDS011;55066;51.560;4.642;2023-04-21T08:37:50;33.00;;;13.85;;
68250;SDS011;55066;51.560;4.642;2023-04-21T08:40:17;35.78;;;15.43;;
68250;SDS011;55066;51.560;4.642;2023-04-21T08:42:43;36.65;;;15.02;;
68250;SDS011;55066;51.560;4.642;2023-04-21T08:45:13;34.58;;;15.10;;
68250;SDS011;55066;51.560;4.642;2023-04-21T08:47:39;34.97;;;15.17;;
68250;SDS011;55066;51.560;4.642;2023-04-21T08:50:06;32.28;;;14.60;;
68250;SDS011;55066;51.560;4.642;2023-04-21T08:52:37;31.23;;;14.10;;
68250;SDS011;55066;51.560;4.642;2023-04-21T08:55:03;33.90;;;15.67;;
68250;SDS011;55066;51.560;4.642;2023-04-21T08:57:31;33.13;;;14.98;;
68250;SDS011;55066;51.560;4.642;2023-04-21T08:59:57;31.75;;;15.30;;
68250;SDS011;55066;51.560;4.642;2023-04-21T09:02:23;38.37;;;16.67;;
68250;SDS011;55066;51.560;4.642;2023-04-21T09:04:49;32.55;;;14.90;;
68250;SDS011;55066;51.560;4.642;2023-04-21T09:07:29;33.42;;;13.35;;
68250;SDS011;55066;51.560;4.642;2023-04-21T09:10:07;34.67;;;16.33;;
68250;SDS011;55066;51.560;4.642;2023-04-21T09:12:33;39.13;;;16.98;;
68250;SDS011;55066;51.560;4.642;2023-04-21T09:14:58;36.80;;;17.03;;
68250;SDS011;55066;51.560;4.642;2023-04-21T09:17:29;36.47;;;17.17;;
68250;SDS011;55066;51.560;4.642;2023-04-21T09:20:20;36.10;;;16.73;;
68250;SDS011;55066;51.560;4.642;2023-04-21T09:22:47;35.10;;;17.10;;
68250;SDS011;55066;51.560;4.642;2023-04-21T09:25:18;36.65;;;16.25;;
68250;SDS011;55066;51.560;4.642;2023-04-21T09:27:45;33.92;;;16.63;;
68250;SDS011;55066;51.560;4.642;2023-04-21T09:30:17;30.35;;;14.77;;
68250;SDS011;55066;51.560;4.642;2023-04-21T09:32:43;31.00;;;14.93;;
68250;SDS011;55066;51.560;4.642;2023-04-21T09:35:15;31.20;;;15.18;;
68250;SDS011;55066;51.560;4.642;2023-04-21T09:37:42;30.38;;;15.82;;
68250;SDS011;55066;51.560;4.642;2023-04-21T09:40:10;29.67;;;14.33;;
68250;SDS011;55066;51.560;4.642;2023-04-21T09:42:38;30.17;;;15.00;;
68250;SDS011;55066;51.560;4.642;2023-04-21T09:45:07;34.08;;;14.52;;
68250;SDS011;55066;51.560;4.642;2023-04-21T09:47:37;28.20;;;14.18;;
68250;SDS011;55066;51.560;4.642;2023-04-21T09:50:10;26.42;;;12.82;;
68250;SDS011;55066;51.560;4.642;2023-04-21T09:52:37;30.93;;;14.77;;
68250;SDS011;55066;51.560;4.642;2023-04-21T09:55:06;29.42;;;14.35;;
68250;SDS011;55066;51.560;4.642;2023-04-21T09:57:40;27.67;;;13.63;;
68250;SDS011;55066;51.560;4.642;2023-04-21T10:00:07;25.92;;;12.95;;
68250;SDS011;55066;51.560;4.642;2023-04-21T10:02:42;28.73;;;13.68;;
68250;SDS011;55066;51.560;4.642;2023-04-21T10:05:10;27.30;;;13.23;;
68250;SDS011;55066;51.560;4.642;2023-04-21T10:07:37;25.13;;;13.07;;
68250;SDS011;55066;51.560;4.642;2023-04-21T10:10:08;25.13;;;13.00;;
68250;SDS011;55066;51.560;4.642;2023-04-21T10:12:48;23.98;;;12.55;;
68250;SDS011;55066;51.560;4.642;2023-04-21T10:18:21;22.30;;;10.53;;
68250;SDS011;55066;51.560;4.642;2023-04-21T10:20:54;19.60;;;10.55;;
68250;SDS011;55066;51.560;4.642;2023-04-21T10:23:29;19.90;;;9.90;;
68250;SDS011;55066;51.560;4.642;2023-04-21T10:26:03;19.90;;;10.10;;
68250;SDS011;55066;51.560;4.642;2023-04-21T10:34:17;19.55;;;9.60;;
68250;SDS011;55066;51.560;4.642;2023-04-21T10:45:22;19.57;;;9.73;;
68250;SDS011;55066;51.560;4.642;2023-04-21T10:50:12;15.85;;;8.60;;
68250;SDS011;55066;51.560;4.642;2023-04-21T10:52:42;17.52;;;10.02;;
68250;SDS011;55066;51.560;4.642;2023-04-21T10:55:09;19.25;;;9.95;;
68250;SDS011;55066;51.560;4.642;2023-04-21T10:57:37;19.80;;;10.53;;
68250;SDS011;55066;51.560;4.642;2023-04-21T11:00:06;18.52;;;10.13;;
68250;SDS011;55066;51.560;4.642;2023-04-21T11:02:33;21.17;;;11.43;;
68250;SDS011;55066;51.560;4.642;2023-04-21T11:04:59;22.45;;;10.50;;
68250;SDS011;55066;51.560;4.642;2023-04-21T11:07:26;18.88;;;10.52;;
68250;SDS011;55066;51.560;4.642;2023-04-21T11:10:02;20.13;;;10.23;;
68250;SDS011;55066;51.560;4.642;2023-04-21T11:12:38;16.88;;;9.50;;
68250;SDS011;55066;51.560;4.642;2023-04-21T11:15:06;17.10;;;8.97;;
68250;SDS011;55066;51.560;4.642;2023-04-21T11:17:34;16.50;;;8.98;;
68250;SDS011;55066;51.560;4.642;2023-04-21T11:20:01;16.67;;;9.88;;
68250;SDS011;55066;51.560;4.642;2023-04-21T11:22:28;20.13;;;10.65;;
68250;SDS011;55066;51.560;4.642;2023-04-21T11:24:55;18.85;;;9.63;;
68250;SDS011;55066;51.560;4.642;2023-04-21T11:27:22;17.53;;;9.30;;
68250;SDS011;55066;51.560;4.642;2023-04-21T11:29:51;18.70;;;9.25;;
68250;SDS011;55066;51.560;4.642;2023-04-21T11:32:19;17.45;;;9.75;;
68250;SDS011;55066;51.560;4.642;2023-04-21T11:34:45;15.63;;;9.02;;
68250;SDS011;55066;51.560;4.642;2023-04-21T11:37:14;15.90;;;9.40;;
68250;SDS011;55066;51.560;4.642;2023-04-21T11:39:42;17.10;;;8.43;;
68250;SDS011;55066;51.560;4.642;2023-04-21T11:42:09;15.88;;;8.73;;
68250;SDS011;55066;51.560;4.642;2023-04-21T11:44:39;15.60;;;8.35;;
68250;SDS011;55066;51.560;4.642;2023-04-21T11:47:13;14.15;;;8.43;;
68250;SDS011;55066;51.560;4.642;2023-04-21T11:49:53;16.33;;;8.60;;
68250;SDS011;55066;51.560;4.642;2023-04-21T11:52:30;14.85;;;8.93;;
68250;SDS011;55066;51.560;4.642;2023-04-21T11:54:58;16.67;;;9.55;;
68250;SDS011;55066;51.560;4.642;2023-04-21T11:57:29;16.38;;;9.10;;
68250;SDS011;55066;51.560;4.642;2023-04-21T11:59:57;16.10;;;8.90;;
68250;SDS011;55066;51.560;4.642;2023-04-21T12:02:24;15.30;;;8.60;;
68250;SDS011;55066;51.560;4.642;2023-04-21T12:07:33;14.30;;;8.30;;
68250;SDS011;55066;51.560;4.642;2023-04-21T12:10:01;14.45;;;8.13;;
68250;SDS011;55066;51.560;4.642;2023-04-21T12:12:32;16.27;;;8.40;;
68250;SDS011;55066;51.560;4.642;2023-04-21T12:15:01;14.23;;;8.20;;
68250;SDS011;55066;51.560;4.642;2023-04-21T12:17:33;14.95;;;8.23;;
68250;SDS011;55066;51.560;4.642;2023-04-21T12:20:09;14.05;;;8.00;;
68250;SDS011;55066;51.560;4.642;2023-04-21T12:22:36;14.00;;;8.10;;
68250;SDS011;55066;51.560;4.642;2023-04-21T12:25:03;14.55;;;8.52;;
68250;SDS011;55066;51.560;4.642;2023-04-21T12:27:29;15.33;;;8.97;;
68250;SDS011;55066;51.560;4.642;2023-04-21T12:29:56;16.45;;;8.60;;
68250;SDS011;55066;51.560;4.642;2023-04-21T12:32:22;17.00;;;9.87;;
68250;SDS011;55066;51.560;4.642;2023-04-21T12:34:48;17.20;;;10.10;;
68250;SDS011;55066;51.560;4.642;2023-04-21T12:37:14;17.38;;;10.20;;
68250;SDS011;55066;51.560;4.642;2023-04-21T12:39:40;15.77;;;9.30;;
68250;SDS011;55066;51.560;4.642;2023-04-21T12:42:06;15.00;;;9.60;;
68250;SDS011;55066;51.560;4.642;2023-04-21T12:44:32;16.60;;;9.45;;
68250;SDS011;55066;51.560;4.642;2023-04-21T12:46:57;16.57;;;9.23;;
68250;SDS011;55066;51.560;4.642;2023-04-21T12:49:23;14.63;;;8.53;;
68250;SDS011;55066;51.560;4.642;2023-04-21T12:51:51;14.32;;;8.63;;
68250;SDS011;55066;51.560;4.642;2023-04-21T12:54:16;14.77;;;8.30;;
68250;SDS011;55066;51.560;4.642;2023-04-21T12:56:43;16.50;;;8.73;;
68250;SDS011;55066;51.560;4.642;2023-04-21T12:59:09;14.70;;;8.70;;
68250;SDS011;55066;51.560;4.642;2023-04-21T13:01:36;14.20;;;7.72;;
68250;SDS011;55066;51.560;4.642;2023-04-21T13:04:02;13.75;;;8.10;;
68250;SDS011;55066;51.560;4.642;2023-04-21T13:06:28;12.33;;;7.33;;
68250;SDS011;55066;51.560;4.642;2023-04-21T13:08:55;13.75;;;8.30;;
68250;SDS011;55066;51.560;4.642;2023-04-21T13:11:21;13.18;;;7.50;;
68250;SDS011;55066;51.560;4.642;2023-04-21T13:13:48;11.95;;;7.40;;
68250;SDS011;55066;51.560;4.642;2023-04-21T13:16:15;12.77;;;7.15;;
68250;SDS011;55066;51.560;4.642;2023-04-21T13:18:41;11.50;;;7.13;;
68250;SDS011;55066;51.560;4.642;2023-04-21T13:21:06;13.25;;;7.00;;
68250;SDS011;55066;51.560;4.642;2023-04-21T13:23:32;11.67;;;6.63;;
68250;SDS011;55066;51.560;4.642;2023-04-21T13:25:57;10.70;;;6.53;;
68250;SDS011;55066;51.560;4.642;2023-04-21T13:28:23;10.97;;;6.63;;
68250;SDS011;55066;51.560;4.642;2023-04-21T13:30:50;10.85;;;6.20;;
68250;SDS011;55066;51.560;4.642;2023-04-21T13:33:16;9.75;;;6.28;;
68250;SDS011;55066;51.560;4.642;2023-04-21T13:35:42;9.73;;;5.93;;
68250;SDS011;55066;51.560;4.642;2023-04-21T13:38:08;11.33;;;7.10;;
68250;SDS011;55066;51.560;4.642;2023-04-21T13:40:34;10.25;;;6.20;;
68250;SDS011;55066;51.560;4.642;2023-04-21T13:43:01;12.43;;;7.15;;
68250;SDS011;55066;51.560;4.642;2023-04-21T13:45:27;12.87;;;6.93;;
68250;SDS011;55066;51.560;4.642;2023-04-21T13:47:52;11.57;;;6.63;;
68250;SDS011;55066;51.560;4.642;2023-04-21T13:50:18;11.40;;;6.28;;
68250;SDS011;55066;51.560;4.642;2023-04-21T13:52:43;9.03;;;5.53;;
68250;SDS011;55066;51.560;4.642;2023-04-21T13:55:09;12.95;;;5.93;;
68250;SDS011;55066;51.560;4.642;2023-04-21T13:57:36;12.85;;;7.03;;
68250;SDS011;55066;51.560;4.642;2023-04-21T14:00:03;12.25;;;6.43;;
68250;SDS011;55066;51.560;4.642;2023-04-21T14:02:36;13.70;;;7.37;;
68250;SDS011;55066;51.560;4.642;2023-04-21T14:05:07;17.35;;;8.10;;
68250;SDS011;55066;51.560;4.642;2023-04-21T14:07:34;11.88;;;7.18;;
68250;SDS011;55066;51.560;4.642;2023-04-21T14:10:04;11.50;;;7.35;;
68250;SDS011;55066;51.560;4.642;2023-04-21T14:12:31;13.23;;;8.00;;
68250;SDS011;55066;51.560;4.642;2023-04-21T14:14:57;14.33;;;7.57;;
68250;SDS011;55066;51.560;4.642;2023-04-21T14:17:22;13.18;;;7.88;;
68250;SDS011;55066;51.560;4.642;2023-04-21T14:19:48;13.63;;;7.40;;
68250;SDS011;55066;51.560;4.642;2023-04-21T14:22:14;11.80;;;6.95;;
68250;SDS011;55066;51.560;4.642;2023-04-21T14:24:40;11.87;;;7.43;;
68250;SDS011;55066;51.560;4.642;2023-04-21T14:27:05;12.30;;;7.40;;
68250;SDS011;55066;51.560;4.642;2023-04-21T14:29:31;14.87;;;7.67;;
68250;SDS011;55066;51.560;4.642;2023-04-21T14:31:58;13.77;;;8.10;;
68250;SDS011;55066;51.560;4.642;2023-04-21T14:34:24;11.87;;;7.30;;
68250;SDS011;55066;51.560;4.642;2023-04-21T14:36:50;16.60;;;7.80;;
68250;SDS011;55066;51.560;4.642;2023-04-21T14:39:16;14.63;;;8.68;;
68250;SDS011;55066;51.560;4.642;2023-04-21T14:41:41;14.73;;;7.97;;
68250;SDS011;55066;51.560;4.642;2023-04-21T14:44:10;14.50;;;8.77;;
68250;SDS011;55066;51.560;4.642;2023-04-21T14:46:39;14.15;;;8.35;;
68250;SDS011;55066;51.560;4.642;2023-04-21T14:49:06;14.93;;;8.13;;